Time;durP1;ratioP1;P1;durP2;ratioP2;P2;SDS_P1;SDS_P2;PMS_P1;PMS_P2;Temp;Humidity;BMP_temperature;BMP_pressure;BME280_temperature;BME280_humidity;BME280_pressure;Samples;Min_cycle;Max_cycle;Signal;HPM_P1;HPM_P2
2022/05/28 00:01:19;;;;;;;11.60;4.50;;;;;;;10.95;61.82;98642.02;105955;1274;111030;-66
2022/05/28 00:03:53;;;;;;;11.40;4.90;;;;;;;11.00;61.86;98637.73;105966;1276;97883;-65
2022/05/28 00:06:28;;;;;;;14.40;5.20;;;;;;;11.04;61.84;98636.39;106088;1274;108653;-66
2022/05/28 00:09:00;;;;;;;14.60;5.10;;;;;;;11.08;61.85;98634.77;106054;1274;97915;-66
2022/05/28 00:11:36;;;;;;;11.00;4.70;;;;;;;11.10;61.74;98634.94;105936;1275;96346;-66
2022/05/28 00:14:07;;;;;;;13.10;5.20;;;;;;;11.13;61.86;98629.75;106041;1274;111365;-65
2022/05/28 00:16:39;;;;;;;11.80;5.30;;;;;;;11.16;61.96;98618.65;106055;1274;97912;-66
2022/05/28 00:19:11;;;;;;;13.30;5.40;;;;;;;11.20;62.05;98616.59;106059;1276;108033;-67
2022/05/28 00:21:39;;;;;;;14.80;5.00;;;;;;;11.23;61.95;98613.50;106108;1275;97918;-66
2022/05/28 00:24:08;;;;;;;12.10;4.20;;;;;;;11.24;61.93;98615.77;106108;1275;97978;-68
2022/05/28 00:26:38;;;;;;;9.50;4.30;;;;;;;11.25;62.01;98617.46;106097;1274;112328;-67
2022/05/28 00:29:08;;;;;;;11.80;5.20;;;;;;;11.24;62.05;98625.49;106077;1274;97880;-67
2022/05/28 00:31:38;;;;;;;9.70;5.40;;;;;;;11.22;62.05;98615.37;106129;1273;108282;-66
2022/05/28 00:34:09;;;;;;;10.50;4.30;;;;;;;11.20;61.95;98618.19;106088;1275;96346;-68
2022/05/28 00:36:37;;;;;;;9.20;4.20;;;;;;;11.18;62.10;98613.24;106065;1274;97880;-67
2022/05/28 00:39:06;;;;;;;11.90;4.10;;;;;;;11.16;62.10;98610.73;106036;1274;112207;-65
2022/05/28 00:41:38;;;;;;;11.50;4.20;;;;;;;11.14;61.85;98608.08;106073;1274;97861;-69
2022/05/28 00:44:10;;;;;;;11.50;4.40;;;;;;;11.06;62.00;98605.50;106063;1277;107553;-65
2022/05/28 00:46:44;;;;;;;7.80;3.80;;;;;;;11.01;61.96;98601.27;106102;1276;96399;-67
2022/05/28 00:49:23;;;;;;;11.20;4.10;;;;;;;10.95;62.09;98602.86;106113;1276;97980;-66
2022/05/28 00:51:55;;;;;;;10.50;3.90;;;;;;;10.93;62.23;98603.73;106097;1277;110993;-65
2022/05/28 00:54:32;;;;;;;15.30;4.10;;;;;;;10.92;62.04;98604.15;106135;1277;97970;-66
2022/05/28 00:57:03;;;;;;;9.40;3.70;;;;;;;10.83;61.99;98599.73;106086;1277;107745;-65
2022/05/28 00:59:35;;;;;;;8.20;3.60;;;;;;;10.78;62.00;98597.18;106071;1277;98010;-67
2022/05/28 01:02:41;;;;;;;8.00;3.70;;;;;;;10.73;61.98;98591.48;106055;1277;98008;-65
2022/05/28 01:05:40;;;;;;;13.00;3.90;;;;;;;10.69;62.12;98591.08;106020;1274;111906;-65
2022/05/28 01:08:25;;;;;;;7.10;3.40;;;;;;;10.66;62.03;98595.55;105982;1274;98069;-67
2022/05/28 01:10:53;;;;;;;10.10;3.70;;;;;;;10.62;62.15;98593.29;106060;1274;108721;-67
2022/05/28 01:13:41;;;;;;;7.80;3.60;;;;;;;10.59;62.08;98583.77;106050;1274;97963;-66
2022/05/28 01:16:21;;;;;;;11.10;4.20;;;;;;;10.55;62.32;98591.36;105958;1276;97947;-65
2022/05/28 01:19:17;;;;;;;9.80;3.80;;;;;;;10.49;62.22;98589.29;106128;1277;111337;-67
2022/05/28 01:22:17;;;;;;;9.50;3.60;;;;;;;10.44;62.22;98591.13;105994;1277;97618;-66
2022/05/28 01:25:17;;;;;;;9.80;3.90;;;;;;;10.38;62.36;98600.81;106079;1277;107466;-66
2022/05/28 01:27:54;;;;;;;10.50;4.10;;;;;;;10.35;62.30;98599.77;106009;1277;98576;-66
2022/05/28 01:30:22;;;;;;;9.50;4.20;;;;;;;10.33;62.33;98598.54;106013;1278;95197;-66
2022/05/28 01:32:54;;;;;;;8.70;4.00;;;;;;;10.31;62.45;98599.05;106083;1277;111916;-67
2022/05/28 01:35:29;;;;;;;11.60;4.20;;;;;;;10.29;62.44;98598.13;106141;1274;95691;-65
2022/05/28 01:38:00;;;;;;;11.40;4.50;;;;;;;10.25;62.60;98600.88;106063;1274;108397;-66
2022/05/28 01:40:30;;;;;;;11.30;4.30;;;;;;;10.26;62.65;98602.45;105962;1277;97974;-66
2022/05/28 01:43:06;;;;;;;9.20;4.30;;;;;;;10.25;62.71;98602.70;105959;1275;97941;-66
2022/05/28 01:45:41;;;;;;;11.80;4.50;;;;;;;10.23;62.68;98600.40;106092;1274;111362;-65
2022/05/28 01:48:12;;;;;;;11.60;4.90;;;;;;;10.19;62.74;98606.91;106104;1274;97981;-66
2022/05/28 01:50:45;;;;;;;12.40;4.60;;;;;;;10.18;62.76;98600.95;106118;1274;105606;-66
2022/05/28 01:56:10;;;;;;;15.10;5.40;;;;;;;10.14;62.86;98595.60;106114;1274;96356;-65
2022/05/28 01:58:42;;;;;;;16.30;5.80;;;;;;;10.13;62.90;98596.00;106004;1274;111065;-67
2022/05/28 02:01:14;;;;;;;13.40;5.80;;;;;;;10.12;62.95;98593.39;105982;1274;95207;-66
2022/05/28 02:03:47;;;;;;;13.70;5.80;;;;;;;10.12;62.98;98591.13;106011;1274;108482;-66
2022/05/28 02:06:15;;;;;;;14.40;6.00;;;;;;;10.12;62.96;98589.70;106114;1274;98057;-67
2022/05/28 02:08:49;;;;;;;11.70;5.80;;;;;;;10.11;63.03;98594.16;106041;1274;95381;-66
2022/05/28 02:11:27;;;;;;;12.50;5.70;;;;;;;10.11;63.16;98598.32;105997;1274;111853;-65
2022/05/28 02:14:07;;;;;;;13.70;6.20;;;;;;;10.10;63.11;98595.35;106046;1274;97900;-66
2022/05/28 02:16:50;;;;;;;16.70;7.20;;;;;;;10.09;63.18;98591.75;106158;1274;107676;-65
2022/05/28 02:19:36;;;;;;;17.10;7.00;;;;;;;10.08;63.31;98590.02;106150;1274;96552;-65
2022/05/28 02:22:36;;;;;;;15.90;7.30;;;;;;;10.07;63.24;98594.16;106098;1274;97879;-65
2022/05/28 02:25:12;;;;;;;14.20;7.10;;;;;;;10.07;63.31;98590.65;106174;1274;112012;-66
2022/05/28 02:27:46;;;;;;;17.60;7.80;;;;;;;10.07;63.40;98594.16;106091;1274;97826;-66
2022/05/28 02:30:18;;;;;;;16.00;7.70;;;;;;;10.08;63.46;98593.55;105975;1274;107456;-65
2022/05/28 02:32:49;;;;;;;15.90;7.50;;;;;;;10.09;63.43;98594.02;106024;1274;97969;-69
2022/05/28 02:35:17;;;;;;;16.40;7.60;;;;;;;10.10;63.45;98592.38;106059;1274;97854;-67
2022/05/28 02:37:46;;;;;;;17.80;8.50;;;;;;;10.11;63.50;98589.60;105962;1274;111970;-67
2022/05/28 02:40:16;;;;;;;16.70;7.30;;;;;;;10.12;63.69;98592.38;106015;1274;97407;-66
2022/05/28 02:42:44;;;;;;;15.60;8.00;;;;;;;10.12;63.63;98593.56;106065;1274;108322;-66
2022/05/28 02:45:15;;;;;;;19.40;8.20;;;;;;;10.12;63.64;98587.21;105990;1274;97889;-66
2022/05/28 02:47:44;;;;;;;18.10;8.40;;;;;;;10.12;63.62;98588.78;105963;1274;97873;-66
2022/05/28 02:50:13;;;;;;;18.30;8.20;;;;;;;10.12;63.61;98588.27;105945;1274;112247;-66
2022/05/28 02:52:44;;;;;;;20.40;9.10;;;;;;;10.11;63.80;98590.48;106128;1274;97952;-66
2022/05/28 02:55:14;;;;;;;19.10;8.80;;;;;;;10.11;63.83;98594.55;105929;1274;108470;-65
2022/05/28 02:57:42;;;;;;;18.20;8.70;;;;;;;10.10;63.76;98595.17;105923;1274;97956;-65
2022/05/28 03:00:16;;;;;;;16.80;8.70;;;;;;;10.10;63.96;98599.38;105973;1274;98551;-66
2022/05/28 03:02:48;;;;;;;20.80;8.90;;;;;;;10.11;63.96;98596.98;105958;1274;112027;-65
2022/05/28 03:05:21;;;;;;;20.50;9.10;;;;;;;10.12;63.97;98597.52;106046;1274;95562;-66
2022/05/28 03:07:53;;;;;;;21.60;9.30;;;;;;;10.12;64.01;98599.65;106090;1274;107494;-66
2022/05/28 03:10:21;;;;;;;21.00;9.40;;;;;;;10.12;64.03;98603.29;105903;1277;97958;-66
2022/05/28 03:12:49;;;;;;;19.20;9.80;;;;;;;10.13;64.09;98601.31;105951;1274;97162;-66
2022/05/28 03:15:21;;;;;;;19.60;8.30;;;;;;;10.15;64.14;98600.86;105919;1274;112047;-67
2022/05/28 03:17:49;;;;;;;18.70;8.70;;;;;;;10.17;64.16;98598.89;106021;1272;97698;-68
2022/05/28 03:20:17;;;;;;;21.40;8.80;;;;;;;10.19;64.17;98600.70;106132;1274;108290;-67
2022/05/28 03:22:45;;;;;;;18.00;8.50;;;;;;;10.21;64.12;98597.18;106130;1274;97901;-67
2022/05/28 03:25:14;;;;;;;25.20;8.60;;;;;;;10.21;64.17;98592.73;106145;1273;96388;-67
2022/05/28 03:27:45;;;;;;;17.60;8.60;;;;;;;10.22;64.24;98588.93;106103;1274;111970;-68
2022/05/28 03:30:17;;;;;;;19.90;8.90;;;;;;;10.22;64.20;98584.69;105898;1274;97997;-67
2022/05/28 03:32:45;;;;;;;17.50;8.30;;;;;;;10.22;64.23;98575.84;105946;1274;108309;-65
2022/05/28 03:35:14;;;;;;;19.70;8.50;;;;;;;10.22;64.25;98585.01;106004;1274;97977;-68
2022/05/28 03:37:42;;;;;;;19.50;8.90;;;;;;;10.23;64.35;98594.01;105963;1274;96041;-66
2022/05/28 03:40:15;;;;;;;19.30;8.60;;;;;;;10.22;64.35;98595.30;105937;1274;112048;-67
2022/05/28 03:42:43;;;;;;;17.00;7.70;;;;;;;10.22;64.32;98597.25;106070;1274;97911;-68
2022/05/28 03:45:11;;;;;;;18.10;8.80;;;;;;;10.24;64.39;98595.54;105623;1274;605351;-67
2022/05/28 03:47:41;;;;;;;18.10;8.20;;;;;;;10.25;64.37;98596.34;106040;1274;97909;-66
2022/05/28 03:50:09;;;;;;;14.30;7.50;;;;;;;10.25;64.42;98600.55;105988;1274;97828;-65
2022/05/28 03:52:37;;;;;;;17.10;7.90;;;;;;;10.28;64.57;98600.19;105990;1274;112055;-66
2022/05/28 03:55:09;;;;;;;17.00;8.00;;;;;;;10.31;64.68;98607.05;106126;1274;96282;-65
2022/05/28 03:57:37;;;;;;;17.20;7.70;;;;;;;10.34;64.68;98613.03;106058;1274;108352;-65
2022/05/28 04:00:09;;;;;;;16.20;7.70;;;;;;;10.37;64.64;98619.33;106077;1274;97846;-65
2022/05/28 04:02:41;;;;;;;19.30;8.00;;;;;;;10.37;64.56;98625.86;106097;1274;95188;-64
2022/05/28 04:05:12;;;;;;;20.50;8.30;;;;;;;10.37;64.68;98622.35;106091;1274;110571;-65
2022/05/28 04:07:44;;;;;;;18.90;7.70;;;;;;;10.39;64.56;98614.94;106053;1274;98020;-65
2022/05/28 04:10:12;;;;;;;21.80;7.70;;;;;;;10.39;64.68;98613.13;106021;1274;108445;-65
2022/05/28 04:12:42;;;;;;;17.70;7.60;;;;;;;10.40;64.54;98614.30;106074;1274;98066;-65
2022/05/28 04:15:16;;;;;;;16.90;7.00;;;;;;;10.41;64.73;98610.88;106131;1274;98040;-65
2022/05/28 04:17:44;;;;;;;18.80;7.40;;;;;;;10.43;64.81;98606.09;106083;1274;112001;-66
2022/05/28 04:20:16;;;;;;;16.40;6.70;;;;;;;10.46;64.86;98608.39;106047;1274;97864;-66
2022/05/28 04:22:44;;;;;;;20.20;7.60;;;;;;;10.47;64.69;98616.25;105969;1274;108399;-66
2022/05/28 04:25:18;;;;;;;19.50;8.20;;;;;;;10.46;64.68;98633.89;105976;1274;97986;-68
2022/05/28 04:27:46;;;;;;;11.70;4.60;;;;;;;10.45;64.67;98635.00;106088;1274;97882;-65
2022/05/28 04:30:14;;;;;;;16.10;4.40;;;;;;;10.42;64.41;98623.52;106038;1274;111896;-66
2022/05/28 04:32:44;;;;;;;10.50;3.30;;;;;;;10.40;64.35;98610.42;106013;1274;96458;-66
2022/05/28 04:35:18;;;;;;;7.60;2.80;;;;;;;10.41;64.25;98604.17;106071;1274;109336;-67
2022/05/28 04:37:46;;;;;;;11.90;2.80;;;;;;;10.42;64.21;98607.38;106129;1274;97857;-67
2022/05/28 04:40:20;;;;;;;12.00;3.40;;;;;;;10.46;64.27;98609.07;106068;1274;95308;-67
2022/05/28 04:42:48;;;;;;;9.40;2.60;;;;;;;10.49;64.18;98609.55;106075;1274;111892;-67
2022/05/28 04:45:16;;;;;;;6.70;2.20;;;;;;;10.49;64.21;98612.72;106031;1274;97979;-66
2022/05/28 04:47:44;;;;;;;12.00;3.00;;;;;;;10.51;64.19;98625.38;106119;1274;107428;-67
2022/05/28 04:50:14;;;;;;;9.10;3.70;;;;;;;10.52;64.28;98625.82;106039;1274;97861;-66
2022/05/28 04:52:48;;;;;;;17.30;4.80;;;;;;;10.52;64.45;98624.01;106029;1274;97872;-68
2022/05/28 04:55:16;;;;;;;12.10;5.40;;;;;;;10.56;64.53;98623.35;105939;1274;111849;-66
2022/05/28 04:57:44;;;;;;;16.60;6.10;;;;;;;10.59;64.61;98625.07;105918;1274;97880;-64
2022/05/28 05:00:18;;;;;;;15.60;5.90;;;;;;;10.62;64.72;98618.23;105933;1274;108445;-65
2022/05/28 05:02:46;;;;;;;13.50;5.40;;;;;;;10.67;64.70;98616.45;106078;1274;97102;-67
2022/05/28 05:05:14;;;;;;;13.00;5.60;;;;;;;10.73;64.79;98618.80;106008;1274;97841;-65
2022/05/28 05:07:48;;;;;;;16.30;5.60;;;;;;;10.79;64.83;98613.15;105954;1274;111745;-67
2022/05/28 05:10:16;;;;;;;14.70;6.00;;;;;;;10.84;64.74;98610.98;105955;1274;96543;-66
2022/05/28 05:12:44;;;;;;;15.50;5.20;;;;;;;10.87;64.68;98609.52;105952;1274;110691;-67
2022/05/28 05:15:19;;;;;;;16.20;5.30;;;;;;;10.91;64.72;98609.02;106044;1274;97984;-67
2022/05/28 05:17:51;;;;;;;12.10;4.40;;;;;;;10.95;64.75;98609.39;106061;1274;97878;-65
2022/05/28 05:20:24;;;;;;;19.00;5.20;;;;;;;10.99;64.70;98609.77;105995;1274;112439;-65
2022/05/28 05:22:55;;;;;;;12.20;4.20;;;;;;;11.06;64.68;98610.34;106092;1274;97657;-67
2022/05/28 05:25:24;;;;;;;12.40;3.90;;;;;;;11.12;64.67;98615.63;106066;1274;108761;-68
2022/05/28 05:27:54;;;;;;;13.20;3.80;;;;;;;11.20;64.62;98623.00;106179;1273;97864;-67
2022/05/28 05:30:21;;;;;;;10.00;3.70;;;;;;;11.27;64.51;98621.89;106142;1274;97940;-67
2022/05/28 05:32:53;;;;;;;14.30;4.50;;;;;;;11.29;64.62;98624.90;106110;1274;112084;-68
2022/05/28 05:35:23;;;;;;;11.00;3.80;;;;;;;11.35;64.76;98629.55;105990;1274;95271;-67
2022/05/28 05:37:52;;;;;;;9.70;3.90;;;;;;;11.42;64.50;98624.89;106068;1274;108243;-67
2022/05/28 05:40:21;;;;;;;12.60;4.00;;;;;;;11.51;64.61;98626.11;106120;1274;97972;-67
2022/05/28 05:42:50;;;;;;;10.00;3.50;;;;;;;11.61;64.60;98627.45;106044;1274;97875;-67
2022/05/28 05:45:18;;;;;;;12.10;3.90;;;;;;;11.69;64.58;98629.77;105992;1274;111585;-66
2022/05/28 05:47:49;;;;;;;11.00;3.50;;;;;;;11.80;64.59;98626.45;106030;1274;97870;-66
2022/05/28 05:50:17;;;;;;;12.30;3.90;;;;;;;11.87;64.46;98626.98;107792;1274;108431;-66
2022/05/28 05:52:46;;;;;;;17.10;4.50;;;;;;;11.93;64.57;98627.58;107930;1274;95721;-66
2022/05/28 05:55:18;;;;;;;11.90;3.50;;;;;;;11.97;64.30;98626.36;107774;1274;95932;-66
2022/05/28 05:57:47;;;;;;;13.00;3.90;;;;;;;11.99;64.42;98624.05;106919;1274;111065;-68
2022/05/28 06:00:21;;;;;;;9.80;3.40;;;;;;;12.08;64.32;98614.99;105939;1274;96415;-66
2022/05/28 06:02:49;;;;;;;12.20;3.60;;;;;;;12.18;64.31;98609.14;106812;1274;108415;-65
2022/05/28 06:05:26;;;;;;;9.90;3.20;;;;;;;12.27;64.34;98610.85;106086;1274;98576;-65
2022/05/28 06:07:54;;;;;;;11.40;3.20;;;;;;;12.32;64.32;98612.67;106021;1274;96981;-69
2022/05/28 06:10:25;;;;;;;9.40;3.30;;;;;;;12.34;64.09;98608.41;106022;1274;111707;-68
2022/05/28 06:12:54;;;;;;;15.30;3.60;;;;;;;12.38;64.19;98604.95;105980;1274;97965;-67
2022/05/28 06:15:22;;;;;;;11.00;3.50;;;;;;;12.43;64.10;98601.11;105976;1274;108283;-67
2022/05/28 06:17:50;;;;;;;12.90;3.10;;;;;;;12.51;64.07;98599.15;105919;1274;97920;-68
2022/05/28 06:20:18;;;;;;;13.60;3.00;;;;;;;12.61;64.15;98597.19;106028;1274;97763;-66
2022/05/28 06:22:46;;;;;;;11.00;3.10;;;;;;;12.73;63.96;98593.32;105941;1274;111995;-66
2022/05/28 06:25:14;;;;;;;16.20;2.70;;;;;;;12.87;63.76;98601.29;106112;1274;97870;-67
2022/05/28 06:27:46;;;;;;;8.90;3.00;;;;;;;13.06;63.56;98596.81;106103;1274;108410;-68
2022/05/28 06:30:17;;;;;;;13.30;3.20;;;;;;;13.12;63.62;98595.71;106050;1274;97981;-67
2022/05/28 06:32:49;;;;;;;7.70;2.70;;;;;;;13.18;63.57;98599.27;106056;1274;97965;-68
2022/05/28 06:35:17;;;;;;;13.90;3.80;;;;;;;13.20;63.60;98602.34;106119;1274;112042;-69
2022/05/28 06:37:47;;;;;;;10.60;2.90;;;;;;;13.24;63.48;98603.86;106003;1274;97883;-67
2022/05/28 06:40:19;;;;;;;8.20;3.60;;;;;;;13.30;63.43;98594.65;105961;1274;108195;-67
2022/05/28 06:42:49;;;;;;;10.50;3.20;;;;;;;13.32;63.30;98585.89;106106;1274;98472;-67
2022/05/28 06:45:26;;;;;;;10.50;2.90;;;;;;;13.37;63.31;98582.09;106166;1274;97878;-66
2022/05/28 06:47:55;;;;;;;10.00;2.40;;;;;;;13.43;63.42;98584.62;106119;1274;111914;-67
2022/05/28 06:53:15;;;;;;;6.60;2.50;;;;;;;13.63;63.01;98576.29;105970;1274;108385;-67
2022/05/28 06:55:45;;;;;;;10.70;2.80;;;;;;;13.77;63.01;98576.14;105981;1274;96396;-66
2022/05/28 06:58:18;;;;;;;7.00;2.20;;;;;;;13.92;62.86;98575.75;106037;1274;95153;-67
2022/05/28 07:00:47;;;;;;;7.70;2.20;;;;;;;14.17;62.91;98575.32;106126;1274;111373;-68
2022/05/28 07:03:24;;;;;;;9.90;2.80;;;;;;;14.47;62.67;98574.63;106051;1274;97961;-65
2022/05/28 07:05:57;;;;;;;13.10;2.70;;;;;;;14.84;62.55;98565.21;106049;1274;107775;-67
2022/05/28 07:08:30;;;;;;;11.90;3.50;;;;;;;15.33;62.48;98564.30;106088;1274;97946;-66
2022/05/28 07:11:07;;;;;;;9.20;2.60;;;;;;;15.88;62.43;98569.36;106150;1274;97795;-67
2022/05/28 07:13:40;;;;;;;11.60;2.80;;;;;;;16.45;62.11;98573.13;106149;1274;111067;-67
2022/05/28 07:16:12;;;;;;;9.10;2.80;;;;;;;16.98;61.91;98570.26;106027;1274;95315;-67
2022/05/28 07:18:46;;;;;;;11.00;2.30;;;;;;;16.88;61.67;98581.86;106022;1274;107753;-66
2022/05/28 07:21:14;;;;;;;10.60;3.20;;;;;;;16.59;61.76;98587.44;106048;1274;97989;-66
2022/05/28 07:23:45;;;;;;;9.00;2.70;;;;;;;16.12;61.46;98591.02;106186;1274;95210;-67
2022/05/28 07:26:22;;;;;;;11.80;2.70;;;;;;;15.87;61.56;98597.33;106150;1274;112836;-66
2022/05/28 07:28:49;;;;;;;10.50;2.80;;;;;;;15.54;61.27;98587.98;106141;1274;97900;-66
2022/05/28 07:31:23;;;;;;;7.60;2.20;;;;;;;15.23;61.01;98584.48;106013;1274;107217;-67
2022/05/28 07:33:53;;;;;;;9.20;2.20;;;;;;;15.06;60.53;98584.60;106091;1274;97856;-67
2022/05/28 07:36:31;;;;;;;17.90;3.30;;;;;;;16.18;58.78;98572.65;106041;1274;97932;-66
2022/05/28 07:38:59;;;;;;;9.30;2.20;;;;;;;17.96;57.82;98556.90;106065;1274;111291;-68
2022/05/28 07:41:36;;;;;;;10.00;2.30;;;;;;;19.73;57.86;98545.02;105984;1274;95701;-67
2022/05/28 07:44:07;;;;;;;5.50;2.10;;;;;;;21.37;57.49;98545.57;106093;1274;107746;-66
2022/05/28 07:46:40;;;;;;;4.00;1.40;;;;;;;22.57;57.45;98546.14;106034;1274;96966;-67
2022/05/28 07:49:07;;;;;;;3.40;1.40;;;;;;;23.20;56.57;98544.23;106031;1274;97917;-67
2022/05/28 07:51:40;;;;;;;5.90;1.80;;;;;;;23.75;56.97;98544.23;106052;1274;112100;-67
2022/05/28 07:54:10;;;;;;;7.00;1.70;;;;;;;24.54;56.87;98548.96;106002;1274;95557;-67
2022/05/28 07:56:38;;;;;;;3.80;1.30;;;;;;;25.32;56.65;98539.88;106027;1274;108321;-67
2022/05/28 07:59:09;;;;;;;3.90;1.60;;;;;;;26.07;56.52;98541.98;106093;1274;97968;-67
2022/05/28 08:01:44;;;;;;;3.20;1.60;;;;;;;26.62;56.35;98537.66;106177;1274;97879;-66
2022/05/28 08:04:17;;;;;;;6.70;1.70;;;;;;;27.41;56.35;98541.48;106145;1274;111622;-67
2022/05/28 08:06:45;;;;;;;5.40;1.90;;;;;;;28.16;56.09;98532.80;106061;1274;97768;-66
2022/05/28 08:09:19;;;;;;;7.20;2.30;;;;;;;28.44;55.35;98536.83;105998;1274;109078;-67
2022/05/28 08:11:47;;;;;;;7.80;2.10;;;;;;;28.23;54.89;98535.75;106034;1274;97041;-67
2022/05/28 08:14:19;;;;;;;10.00;2.60;;;;;;;28.15;55.22;98529.38;106095;1274;97937;-66
2022/05/28 08:16:47;;;;;;;11.70;2.70;;;;;;;27.47;56.21;98532.37;105985;1276;114351;-67
2022/05/28 08:19:20;;;;;;;9.50;2.90;;;;;;;26.61;55.24;98528.02;106113;1274;98336;-68
2022/05/28 08:24:37;;;;;;;9.00;2.80;;;;;;;25.27;54.02;98524.05;106136;1274;97985;-67
2022/05/28 08:27:09;;;;;;;7.80;2.90;;;;;;;25.53;53.91;98522.43;106192;1274;95204;-67
2022/05/28 08:29:39;;;;;;;7.80;2.60;;;;;;;25.36;53.35;98520.30;106123;1273;111457;-66
2022/05/28 08:32:12;;;;;;;11.50;3.00;;;;;;;24.80;53.10;98534.38;106149;1274;98841;-67
2022/05/28 08:34:49;;;;;;;16.50;3.30;;;;;;;23.54;51.89;98546.00;106152;1274;108392;-68
2022/05/28 08:37:17;;;;;;;8.10;2.50;;;;;;;22.01;51.90;98556.63;106124;1274;97913;-66
2022/05/28 08:39:47;;;;;;;4.50;2.00;;;;;;;20.75;50.62;98581.84;106101;1274;97934;-67
2022/05/28 08:42:20;;;;;;;8.20;2.40;;;;;;;19.52;51.42;98592.58;106058;1274;112361;-65
2022/05/28 08:44:50;;;;;;;6.00;1.90;;;;;;;18.72;50.79;98588.98;106067;1274;98090;-67
2022/05/28 08:47:37;;;;;;;5.00;1.60;;;;;;;18.17;51.26;98592.84;105820;1274;107794;-65
2022/05/28 08:50:10;;;;;;;5.20;1.70;;;;;;;17.79;51.22;98590.41;105917;1272;97907;-67
2022/05/28 08:52:50;;;;;;;6.10;2.10;;;;;;;17.49;51.18;98588.29;106133;1274;97906;-67
2022/05/28 08:55:26;;;;;;;7.80;2.20;;;;;;;17.33;50.76;98586.92;106071;1274;111292;-67
2022/05/28 08:58:14;;;;;;;5.70;2.00;;;;;;;17.94;50.55;98587.13;106049;1274;95204;-67
2022/05/28 09:01:13;;;;;;;8.20;1.80;;;;;;;19.13;50.24;98581.08;105996;1274;107731;-68
2022/05/28 09:04:22;;;;;;;7.20;1.80;;;;;;;20.25;49.87;98574.05;106068;1274;97993;-67
2022/05/28 09:06:58;;;;;;;6.10;2.20;;;;;;;21.51;49.78;98570.14;105925;1275;96340;-67
2022/05/28 09:09:46;;;;;;;5.30;1.70;;;;;;;22.49;49.70;98569.35;106061;1274;111392;-68
2022/05/28 09:12:25;;;;;;;4.70;1.80;;;;;;;23.40;49.66;98563.23;106132;1274;98445;-67
2022/05/28 09:14:56;;;;;;;3.30;1.40;;;;;;;24.13;49.31;98562.33;106043;1274;107712;-67
2022/05/28 09:17:34;;;;;;;4.30;1.60;;;;;;;24.69;49.19;98558.52;106037;1274;97965;-67
2022/05/28 09:20:22;;;;;;;4.70;1.70;;;;;;;25.21;49.11;98552.98;105984;1274;97090;-66
2022/05/28 09:22:50;;;;;;;7.80;2.00;;;;;;;25.65;48.46;98554.67;105902;1276;111397;-67
2022/05/28 09:25:26;;;;;;;8.50;2.00;;;;;;;25.35;48.60;98554.38;106062;1274;99013;-66
2022/05/28 09:28:16;;;;;;;8.30;2.50;;;;;;;25.43;48.51;98543.33;106086;1274;107814;-68
2022/05/28 09:31:00;;;;;;;8.10;2.00;;;;;;;25.86;48.30;98536.65;106125;1274;96410;-67
2022/05/28 09:33:54;;;;;;;7.20;2.30;;;;;;;26.12;48.23;98531.58;106144;1274;95246;-67
2022/05/28 09:36:40;;;;;;;7.50;2.50;;;;;;;26.37;47.86;98538.22;106104;1274;111953;-68
2022/05/28 09:39:20;;;;;;;8.60;2.40;;;;;;;26.24;47.39;98535.36;106012;1274;98446;-69
2022/05/28 09:41:57;;;;;;;6.20;2.60;;;;;;;26.24;47.18;98531.24;106006;1275;108092;-67
2022/05/28 09:44:27;;;;;;;9.60;2.50;;;;;;;26.48;47.41;98525.55;105876;1276;97886;-68
2022/05/28 09:47:18;;;;;;;8.40;2.60;;;;;;;26.50;46.77;98526.15;106092;1276;97969;-68
2022/05/28 09:49:59;;;;;;;14.40;3.50;;;;;;;26.35;46.59;98524.52;105958;1276;112297;-71
2022/05/28 09:54:16;;;;;;;8.00;2.90;;;;;;;26.01;46.40;98515.09;105965;1276;97757;-68
2022/05/28 09:55:24;;;;;;;6.20;2.50;;;;;;;25.26;46.16;98521.41;105905;1276;108453;-68
2022/05/28 09:58:00;;;;;;;8.50;3.20;;;;;;;24.70;45.86;98513.55;105944;1276;95351;-66
2022/05/28 10:00:35;;;;;;;7.60;3.00;;;;;;;24.30;45.92;98511.20;106022;1275;97954;-67
2022/05/28 10:06:22;;;;;;;8.60;3.20;;;;;;;23.39;45.67;98516.77;106025;1276;95277;-68
2022/05/28 10:08:49;;;;;;;10.50;3.30;;;;;;;23.10;45.36;98509.38;106053;1276;107925;-67
2022/05/28 10:11:24;;;;;;;12.20;3.20;;;;;;;22.78;45.16;98508.31;105973;1275;97886;-68
2022/05/28 10:14:00;;;;;;;11.40;3.20;;;;;;;22.29;44.97;98506.41;105944;1276;97810;-66
2022/05/28 10:16:41;;;;;;;10.90;3.30;;;;;;;21.64;44.60;98505.80;105978;1276;111244;-66
2022/05/28 10:19:35;;;;;;;7.40;2.10;;;;;;;21.18;43.84;98511.24;105907;1276;97893;-69
2022/05/28 10:22:19;;;;;;;10.20;2.30;;;;;;;20.37;43.05;98510.14;105896;1276;108107;-69
2022/05/28 10:24:55;;;;;;;6.90;2.30;;;;;;;19.75;43.76;98509.50;105966;1276;97087;-67
2022/05/28 10:27:42;;;;;;;10.20;2.40;;;;;;;19.62;43.58;98504.70;106048;1276;97967;-66
2022/05/28 10:30:52;;;;;;;11.80;2.70;;;;;;;19.33;42.95;98506.85;105979;1276;112060;-66
2022/05/28 10:33:30;;;;;;;10.80;2.30;;;;;;;18.97;43.41;98507.10;106010;1276;97995;-66
2022/05/28 10:36:14;;;;;;;12.00;2.60;;;;;;;18.89;43.45;98508.59;106022;1276;107804;-67
2022/05/28 10:38:47;;;;;;;12.70;2.50;;;;;;;18.79;43.38;98504.14;106117;1276;98934;-68
2022/05/28 10:41:28;;;;;;;9.50;2.60;;;;;;;18.69;43.04;98500.07;105994;1276;98480;-66
2022/05/28 10:44:02;;;;;;;9.70;2.40;;;;;;;18.61;43.05;98502.23;105973;1274;111392;-66
2022/05/28 10:46:49;;;;;;;10.90;2.80;;;;;;;18.58;43.15;98497.20;106070;1274;97758;-67
2022/05/28 10:50:09;;;;;;;5.90;1.70;;;;;;;18.59;43.10;98501.64;106150;1274;108433;-67
2022/05/28 10:53:08;;;;;;;7.70;1.60;;;;;;;18.34;42.10;98497.11;106207;1273;98492;-66
2022/05/28 10:55:45;;;;;;;9.20;1.90;;;;;;;18.21;42.58;98490.94;106075;1274;98010;-67
2022/05/28 10:58:35;;;;;;;11.30;2.70;;;;;;;18.24;42.44;98490.73;106043;1274;112121;-66
2022/05/28 11:01:33;;;;;;;10.60;2.50;;;;;;;18.20;42.38;98489.70;106026;1274;95258;-68
2022/05/28 11:04:04;;;;;;;6.60;1.90;;;;;;;18.10;42.27;98482.90;106034;1274;107988;-67
2022/05/28 11:07:05;;;;;;;7.90;2.10;;;;;;;17.99;42.39;98483.27;106016;1274;97845;-68
2022/05/28 11:10:33;;;;;;;6.60;2.00;;;;;;;17.99;42.48;98480.19;106027;1274;97898;-68
2022/05/28 11:13:26;;;;;;;7.70;2.40;;;;;;;18.05;42.48;98472.00;105436;1283;111701;-67
2022/05/28 11:16:52;;;;;;;5.40;1.50;;;;;;;18.04;42.13;98478.60;105515;1282;97875;-66
2022/05/28 11:19:48;;;;;;;10.60;2.20;;;;;;;17.89;41.81;98483.86;105466;1283;108428;-68
2022/05/28 11:22:28;;;;;;;7.70;2.00;;;;;;;17.72;41.90;98481.23;106129;1274;95271;-67
2022/05/28 11:25:25;;;;;;;7.40;1.90;;;;;;;17.65;41.69;98474.35;106138;1273;96289;-66
2022/05/28 11:28:04;;;;;;;9.70;2.40;;;;;;;17.51;41.66;98469.95;106116;1274;111836;-67
2022/05/28 11:30:43;;;;;;;8.00;2.50;;;;;;;17.41;41.58;98477.65;106139;1274;97969;-67
2022/05/28 11:33:16;;;;;;;6.70;1.70;;;;;;;17.24;41.22;98483.79;106104;1274;107793;-67
2022/05/28 11:36:22;;;;;;;7.20;1.70;;;;;;;17.01;41.06;98487.23;105969;1274;95317;-66
2022/05/28 11:38:55;;;;;;;10.20;2.60;;;;;;;16.83;41.48;98478.77;106103;1274;97771;-68
2022/05/28 11:41:50;;;;;;;8.90;2.80;;;;;;;16.85;41.62;98476.37;106114;1274;112021;-66
2022/05/28 11:44:54;;;;;;;11.10;2.80;;;;;;;16.89;41.52;98473.66;106072;1274;97964;-66
2022/05/28 11:47:52;;;;;;;8.80;2.20;;;;;;;16.83;41.63;98479.99;106005;1274;108316;-69
2022/05/28 11:53:54;;;;;;;6.20;2.00;;;;;;;16.60;41.32;98479.92;105960;1274;97893;-66
2022/05/28 11:56:28;;;;;;;6.80;1.70;;;;;;;16.60;41.48;98470.06;105963;1274;111116;-65
2022/05/28 11:59:14;;;;;;;9.00;2.00;;;;;;;16.68;41.56;98467.21;106052;1274;97996;-66
2022/05/28 12:01:47;;;;;;;10.60;1.90;;;;;;;16.81;41.52;98459.20;106026;1274;108617;-65
2022/05/28 12:04:22;;;;;;;6.60;2.00;;;;;;;16.96;41.44;98468.02;106109;1274;98014;-66
2022/05/28 12:07:23;;;;;;;10.60;2.60;;;;;;;17.05;41.29;98466.73;106099;1272;98011;-66
2022/05/28 12:09:53;;;;;;;8.20;1.70;;;;;;;17.04;41.26;98457.64;106173;1273;111985;-65